Time;durP1;ratioP1;P1;durP2;ratioP2;P2;SDS_P1;SDS_P2;PMS_P1;PMS_P2;Temp;Humidity;BMP_temperature;BMP_pressure;BME280_temperature;BME280_humidity;BME280_pressure;Samples;Min_cycle;Max_cycle;Signal;HPM_P1;HPM_P2
2021/07/27 00:00:57;;;;;;;5.65;4.95;;;21.70;80.10;;;;;;3559278;40;20045;-65
2021/07/27 00:03:25;;;;;;;5.72;4.78;;;21.60;80.20;;;;;;3559494;40;20033;-65
2021/07/27 00:05:52;;;;;;;6.40;5.13;;;21.60;80.50;;;;;;3559980;40;20036;-65
2021/07/27 00:08:18;;;;;;;4.32;3.92;;;21.60;80.40;;;;;;3559862;40;20033;-65
2021/07/27 00:10:44;;;;;;;5.07;4.53;;;21.60;80.40;;;;;;3558825;40;20119;-63
2021/07/27 00:13:10;;;;;;;6.10;4.78;;;21.60;80.50;;;;;;3559725;40;20032;-63
2021/07/27 00:15:35;;;;;;;6.93;4.78;;;21.60;80.60;;;;;;3560180;40;20014;-63
2021/07/27 00:18:01;;;;;;;7.07;5.22;;;21.60;80.50;;;;;;3560972;40;20036;-63
2021/07/27 00:20:27;;;;;;;5.65;5.05;;;21.50;80.60;;;;;;3559948;40;20403;-63
2021/07/27 00:22:53;;;;;;;6.68;5.03;;;21.50;81.20;;;;;;3561745;40;20029;-62
2021/07/27 00:25:19;;;;;;;7.35;4.70;;;21.50;81.20;;;;;;3560979;40;20088;-62
2021/07/27 00:27:44;;;;;;;5.65;4.60;;;21.50;81.10;;;;;;3561065;40;20032;-62
2021/07/27 00:30:12;;;;;;;5.00;4.32;;;21.50;81.10;;;;;;3564579;40;20041;-63
2021/07/27 00:32:43;;;;;;;8.07;5.00;;;21.40;81.70;;;;;;3561747;40;20392;-63
2021/07/27 00:35:10;;;;;;;8.52;5.03;;;21.40;81.60;;;;;;3556374;40;20029;-62
2021/07/27 00:37:41;;;;;;;9.35;5.18;;;21.50;81.60;;;;;;3561579;40;20038;-63
2021/07/27 00:40:07;;;;;;;5.82;4.88;;;21.50;81.30;;;;;;3561860;40;20424;-63
2021/07/27 00:42:41;;;;;;;5.43;4.30;;;21.50;80.80;;;;;;3562028;40;20407;-63
2021/07/27 00:45:08;;;;;;;5.55;4.30;;;21.50;80.80;;;;;;3560516;40;20505;-63
2021/07/27 00:47:33;;;;;;;6.03;4.28;;;21.60;80.60;;;;;;3561212;40;20478;-62
2021/07/27 00:49:59;;;;;;;5.70;4.88;;;21.60;80.40;;;;;;3561948;40;20079;-63
2021/07/27 00:52:25;;;;;;;7.72;5.32;;;21.60;80.40;;;;;;3562102;40;20041;-62
2021/07/27 00:54:51;;;;;;;5.63;4.88;;;21.60;80.40;;;;;;3561575;40;20018;-62
2021/07/27 00:57:17;;;;;;;5.35;4.82;;;21.60;80.30;;;;;;3559606;40;20032;-63
2021/07/27 00:59:43;;;;;;;8.35;4.50;;;21.60;80.40;;;;;;3560156;40;20033;-62
2021/07/27 01:02:09;;;;;;;6.15;4.25;;;21.60;80.40;;;;;;3560649;40;20025;-62
2021/07/27 01:04:34;;;;;;;5.57;4.05;;;21.60;80.50;;;;;;3560095;40;20764;-62
2021/07/27 01:07:00;;;;;;;5.28;4.53;;;21.60;80.70;;;;;;3559634;40;20038;-62
2021/07/27 01:09:26;;;;;;;7.45;4.97;;;21.60;80.80;;;;;;3561187;40;20049;-62
2021/07/27 01:11:52;;;;;;;5.95;4.43;;;21.60;80.60;;;;;;3561075;40;20126;-62
2021/07/27 01:14:17;;;;;;;6.88;5.10;;;21.60;80.30;;;;;;3561358;40;20678;-62
2021/07/27 01:16:43;;;;;;;4.93;4.22;;;21.60;80.20;;;;;;3560287;40;20045;-62
2021/07/27 01:19:21;;;;;;;6.97;4.93;;;21.70;80.00;;;;;;3560334;40;20502;-62
2021/07/27 01:41:05;;;;;;;5.70;4.10;;;21.90;79.60;;;;;;3560610;40;20336;-64
2021/07/27 01:43:34;;;;;;;7.88;4.55;;;21.90;79.80;;;;;;3560115;40;20053;-64
2021/07/27 01:46:00;;;;;;;5.55;4.53;;;21.90;79.90;;;;;;3560734;40;20029;-65
2021/07/27 01:48:26;;;;;;;5.53;4.57;;;21.90;79.80;;;;;;3559620;40;20119;-62
2021/07/27 01:50:51;;;;;;;5.93;4.38;;;21.90;79.60;;;;;;3560649;40;20037;-62
2021/07/27 01:53:26;;;;;;;6.55;4.30;;;21.90;79.90;;;;;;3559752;40;20067;-62
2021/07/27 01:55:55;;;;;;;5.47;4.38;;;21.80;80.00;;;;;;3559588;40;20037;-64
2021/07/27 01:58:21;;;;;;;10.23;4.95;;;21.80;80.10;;;;;;3560987;40;20037;-64
2021/07/27 02:00:47;;;;;;;5.22;4.55;;;21.80;80.20;;;;;;3560656;40;20110;-65
2021/07/27 02:03:16;;;;;;;5.10;4.30;;;21.80;80.40;;;;;;3559775;40;20021;-64
2021/07/27 02:05:45;;;;;;;5.03;4.18;;;21.80;80.70;;;;;;3561467;40;20034;-64
2021/07/27 02:08:12;;;;;;;4.97;4.28;;;21.70;80.50;;;;;;3560968;40;20045;-61
2021/07/27 02:10:40;;;;;;;5.75;4.18;;;21.70;80.60;;;;;;3560662;40;20069;-62
2021/07/27 02:13:25;;;;;;;6.35;4.38;;;21.70;80.80;;;;;;3561453;40;20611;-62
2021/07/27 02:15:51;;;;;;;7.45;4.75;;;21.70;81.00;;;;;;3561704;40;20049;-63
2021/07/27 02:18:16;;;;;;;5.90;4.70;;;21.60;81.10;;;;;;3561159;40;20041;-62
2021/07/27 02:20:48;;;;;;;8.70;4.68;;;21.60;81.20;;;;;;3561040;40;20059;-62
2021/07/27 02:23:13;;;;;;;7.82;4.60;;;21.60;81.10;;;;;;3561349;40;20018;-63
2021/07/27 02:25:39;;;;;;;6.72;4.95;;;21.50;81.20;;;;;;3561585;40;20115;-63
2021/07/27 02:28:06;;;;;;;6.00;4.80;;;21.50;81.40;;;;;;3561476;40;20103;-62
2021/07/27 02:30:39;;;;;;;6.53;4.65;;;21.40;81.20;;;;;;3561393;40;20061;-62
2021/07/27 02:33:05;;;;;;;6.63;4.60;;;21.40;81.60;;;;;;3559379;40;20030;-62
2021/07/27 02:35:39;;;;;;;4.93;4.43;;;21.30;81.80;;;;;;3561335;40;20777;-62
2021/07/27 02:38:05;;;;;;;7.28;4.40;;;21.30;81.70;;;;;;3560928;40;20099;-62
2021/07/27 02:40:35;;;;;;;6.65;4.53;;;21.20;81.80;;;;;;3560112;40;20045;-62
2021/07/27 02:43:02;;;;;;;6.35;5.18;;;21.20;82.10;;;;;;3558521;40;20077;-62
2021/07/27 02:45:28;;;;;;;7.88;4.70;;;21.20;82.20;;;;;;3559990;40;20124;-62
2021/07/27 02:47:54;;;;;;;6.25;4.50;;;21.10;82.40;;;;;;3559652;40;20805;-62
2021/07/27 02:50:20;;;;;;;10.02;4.90;;;21.10;82.60;;;;;;3558957;40;20041;-62
2021/07/27 02:52:46;;;;;;;5.40;4.53;;;21.10;82.80;;;;;;3560120;40;20085;-62
2021/07/27 02:55:12;;;;;;;5.43;4.93;;;21.10;82.80;;;;;;3559510;40;20048;-62
2021/07/27 02:57:39;;;;;;;6.50;4.95;;;21.00;83.30;;;;;;3559046;40;20041;-62
2021/07/27 03:00:05;;;;;;;6.25;4.65;;;21.00;83.60;;;;;;3560187;40;20044;-62
2021/07/27 03:02:36;;;;;;;4.82;4.07;;;20.90;83.60;;;;;;3558209;40;20481;-62
2021/07/27 03:05:02;;;;;;;5.75;4.65;;;20.90;83.90;;;;;;3559059;40;20034;-62
2021/07/27 03:08:02;;;;;;;7.15;4.70;;;20.90;83.60;;;;;;3560104;40;20422;-62
2021/07/27 03:10:20;;;;;;;7.35;5.20;;;20.90;83.80;;;;;;3551762;40;20404;-64
2021/07/27 03:12:52;;;;;;;7.85;5.47;;;20.80;83.90;;;;;;3559635;40;20021;-64
2021/07/27 03:15:19;;;;;;;5.68;4.72;;;20.80;84.00;;;;;;3560360;40;20029;-64
2021/07/27 03:17:45;;;;;;;7.07;5.07;;;20.80;84.30;;;;;;3559807;40;20403;-64
2021/07/27 03:20:13;;;;;;;7.22;5.15;;;20.80;84.60;;;;;;3559949;40;20048;-63
2021/07/27 03:22:40;;;;;;;5.65;4.82;;;20.70;84.70;;;;;;3560089;40;20496;-64
2021/07/27 03:25:13;;;;;;;6.45;5.50;;;20.70;84.80;;;;;;3560008;40;20033;-64
2021/07/27 03:27:39;;;;;;;6.50;5.10;;;20.70;84.80;;;;;;3560570;40;20409;-64
2021/07/27 03:30:06;;;;;;;5.75;4.55;;;20.70;85.10;;;;;;3560064;40;20266;-62
2021/07/27 03:32:36;;;;;;;6.85;5.25;;;20.60;85.40;;;;;;3561317;40;20041;-63
2021/07/27 03:35:03;;;;;;;6.13;5.28;;;20.60;85.60;;;;;;3560409;40;20043;-62
2021/07/27 03:37:28;;;;;;;6.13;4.45;;;20.60;85.80;;;;;;3560050;40;20816;-64
2021/07/27 03:39:54;;;;;;;6.68;5.13;;;20.60;85.80;;;;;;3560450;40;20183;-64
2021/07/27 03:42:22;;;;;;;6.82;5.13;;;20.60;85.70;;;;;;3560211;40;20038;-64
2021/07/27 03:44:52;;;;;;;6.30;4.95;;;20.60;85.70;;;;;;3559476;40;20296;-64
2021/07/27 03:47:17;;;;;;;6.95;5.30;;;20.60;85.80;;;;;;3558640;40;20026;-64
2021/07/27 03:49:43;;;;;;;7.20;5.05;;;20.60;86.40;;;;;;3560159;40;20399;-64
2021/07/27 03:52:09;;;;;;;6.47;5.55;;;20.60;86.90;;;;;;3559490;40;20034;-64
2021/07/27 03:54:34;;;;;;;7.35;5.40;;;20.60;87.10;;;;;;3559908;40;20045;-64
2021/07/27 03:57:04;;;;;;;9.45;5.25;;;20.60;86.90;;;;;;3560544;40;20419;-64
2021/07/27 03:59:30;;;;;;;6.32;4.95;;;20.70;86.80;;;;;;3559574;40;20037;-62
2021/07/27 04:01:56;;;;;;;6.63;5.43;;;20.70;86.20;;;;;;3559858;40;20524;-64
2021/07/27 04:04:22;;;;;;;6.50;5.05;;;20.80;86.20;;;;;;3559905;40;20069;-65
2021/07/27 04:06:48;;;;;;;9.07;5.85;;;20.80;86.00;;;;;;3554312;40;20040;-64
2021/07/27 04:09:14;;;;;;;6.07;5.38;;;20.80;85.60;;;;;;3559831;40;20030;-64
2021/07/27 04:11:40;;;;;;;8.88;5.75;;;20.90;85.60;;;;;;3559577;40;20037;-64
2021/07/27 04:14:07;;;;;;;7.05;4.90;;;20.90;85.30;;;;;;3550423;40;20330;-64
2021/07/27 04:16:32;;;;;;;6.57;5.45;;;21.00;85.40;;;;;;3559745;40;20018;-62
2021/07/27 04:18:58;;;;;;;6.38;4.70;;;21.10;84.50;;;;;;3560320;40;20029;-62
2021/07/27 04:21:25;;;;;;;5.82;5.22;;;21.10;84.20;;;;;;3558511;40;20135;-62
2021/07/27 04:23:51;;;;;;;7.43;4.97;;;21.20;83.80;;;;;;3557171;40;20045;-62
2021/07/27 04:26:16;;;;;;;5.57;4.57;;;21.30;83.10;;;;;;3560050;40;20079;-62
2021/07/27 04:28:42;;;;;;;6.75;4.82;;;21.30;83.00;;;;;;3559121;40;20041;-62
2021/07/27 04:31:08;;;;;;;7.35;5.15;;;21.30;82.80;;;;;;3559844;40;20033;-64
2021/07/27 04:33:34;;;;;;;5.80;5.00;;;21.40;82.70;;;;;;3558320;40;20558;-64
2021/07/27 04:35:59;;;;;;;4.80;4.13;;;21.40;82.40;;;;;;3560001;40;20050;-64
2021/07/27 04:38:25;;;;;;;7.63;4.32;;;21.40;82.00;;;;;;3559678;40;20037;-64
2021/07/27 04:40:51;;;;;;;6.60;4.80;;;21.50;81.80;;;;;;3559231;40;20033;-64
2021/07/27 04:43:17;;;;;;;7.57;4.78;;;21.50;81.60;;;;;;3560223;40;20061;-64
2021/07/27 04:45:43;;;;;;;7.60;4.72;;;21.50;81.30;;;;;;3558092;40;20119;-65
2021/07/27 04:48:08;;;;;;;11.50;5.50;;;21.50;81.30;;;;;;3559805;40;20052;-64
2021/07/27 04:50:38;;;;;;;7.03;4.70;;;21.60;81.40;;;;;;3558489;40;20414;-62
2021/07/27 04:53:06;;;;;;;8.13;4.78;;;21.60;81.30;;;;;;3559821;40;20441;-64
2021/07/27 04:55:32;;;;;;;5.90;4.70;;;21.60;81.20;;;;;;3558656;40;20105;-64
2021/07/27 04:57:57;;;;;;;4.72;3.97;;;21.60;81.10;;;;;;3559901;40;20119;-64
2021/07/27 05:00:24;;;;;;;6.70;4.82;;;21.60;81.00;;;;;;3559772;40;20402;-64
2021/07/27 05:02:50;;;;;;;5.80;4.32;;;21.60;81.10;;;;;;3560252;40;20095;-64
2021/07/27 05:05:16;;;;;;;7.18;4.70;;;21.60;80.90;;;;;;3561459;40;20029;-62
2021/07/27 05:07:46;;;;;;;5.65;4.53;;;21.70;81.20;;;;;;3561708;40;20109;-62
2021/07/27 05:10:13;;;;;;;5.25;4.22;;;21.70;80.90;;;;;;3560666;40;20427;-62
2021/07/27 05:12:39;;;;;;;7.38;4.50;;;21.70;81.20;;;;;;3561592;40;20691;-62
2021/07/27 05:15:06;;;;;;;6.93;4.88;;;21.70;81.10;;;;;;3561417;40;20033;-62
2021/07/27 05:17:31;;;;;;;5.45;4.50;;;21.70;82.00;;;;;;3559712;40;20065;-62
2021/07/27 05:19:57;;;;;;;7.78;4.72;;;21.80;81.60;;;;;;3560989;40;20768;-64
2021/07/27 05:22:23;;;;;;;4.97;4.30;;;21.80;81.10;;;;;;3561531;40;20434;-64
2021/07/27 05:24:58;;;;;;;10.52;4.63;;;21.80;81.70;;;;;;3561273;40;20045;-64
2021/07/27 05:27:25;;;;;;;8.15;4.40;;;21.80;81.00;;;;;;3560789;40;20211;-65
2021/07/27 05:29:55;;;;;;;5.68;4.43;;;21.90;80.70;;;;;;3560855;40;20585;-65
2021/07/27 05:32:21;;;;;;;4.60;4.00;;;21.90;81.30;;;;;;3559966;40;20045;-65
2021/07/27 05:34:48;;;;;;;9.23;4.75;;;21.90;81.60;;;;;;3560636;40;20378;-65
2021/07/27 05:37:13;;;;;;;11.60;5.03;;;22.00;80.90;;;;;;3560156;40;20036;-65
2021/07/27 05:39:39;;;;;;;6.28;4.75;;;22.00;80.20;;;;;;3559840;40;20021;-65
2021/07/27 05:42:05;;;;;;;5.13;4.40;;;22.10;79.50;;;;;;3559441;40;20048;-64
2021/07/27 05:44:31;;;;;;;6.43;4.78;;;22.20;79.60;;;;;;3559778;40;20075;-65
2021/07/27 05:46:57;;;;;;;4.30;3.88;;;22.20;79.30;;;;;;3560254;40;20025;-65
2021/07/27 05:49:25;;;;;;;5.60;4.35;;;22.30;79.10;;;;;;3559964;40;20608;-65
2021/07/27 05:51:52;;;;;;;8.55;4.38;;;22.40;78.30;;;;;;3559989;40;20064;-66
2021/07/27 05:54:20;;;;;;;6.97;4.35;;;22.40;77.90;;;;;;3557509;40;20038;-65
2021/07/27 05:56:47;;;;;;;6.57;4.82;;;22.50;77.90;;;;;;3557333;40;20029;-65
2021/07/27 05:59:14;;;;;;;7.30;4.78;;;22.60;77.80;;;;;;3560476;40;20045;-65
2021/07/27 06:01:40;;;;;;;5.28;4.32;;;22.80;77.70;;;;;;3560632;40;20171;-65
2021/07/27 06:04:06;;;;;;;7.45;4.20;;;23.10;76.60;;;;;;3559618;40;20126;-65
2021/07/27 06:06:32;;;;;;;6.18;3.97;;;23.20;76.00;;;;;;3560746;40;20061;-65
2021/07/27 06:09:03;;;;;;;5.00;4.20;;;23.40;75.00;;;;;;3560403;40;20041;-65
2021/07/27 06:11:30;;;;;;;7.65;4.03;;;23.50;75.00;;;;;;3560616;40;20056;-65
2021/07/27 06:13:56;;;;;;;5.72;4.40;;;23.60;74.70;;;;;;3560688;40;20454;-65
2021/07/27 06:16:22;;;;;;;7.03;4.25;;;23.70;75.30;;;;;;3561089;40;20065;-64
2021/07/27 06:18:48;;;;;;;4.35;3.78;;;23.70;74.60;;;;;;3561140;40;20493;-65
2021/07/27 06:21:14;;;;;;;4.97;3.78;;;23.60;73.60;;;;;;3560772;40;20047;-65
2021/07/27 06:23:40;;;;;;;6.90;3.85;;;23.50;73.20;;;;;;3560806;40;20034;-65
2021/07/27 06:26:07;;;;;;;5.20;4.20;;;23.50;72.60;;;;;;3560553;40;20103;-64
2021/07/27 06:28:34;;;;;;;6.40;4.18;;;23.50;73.30;;;;;;3560730;40;20438;-65
2021/07/27 06:31:02;;;;;;;6.68;4.00;;;23.50;73.40;;;;;;3560521;40;20044;-65
2021/07/27 06:33:28;;;;;;;4.53;3.58;;;23.50;73.10;;;;;;3561325;40;20641;-65
2021/07/27 06:35:57;;;;;;;6.07;3.65;;;23.60;72.80;;;;;;3560126;40;20034;-65
2021/07/27 06:38:24;;;;;;;5.22;3.88;;;23.60;71.80;;;;;;3558443;40;20032;-65
2021/07/27 06:40:50;;;;;;;8.35;3.85;;;23.60;71.40;;;;;;3560939;40;20044;-65
2021/07/27 06:43:16;;;;;;;6.25;3.90;;;23.70;71.60;;;;;;3560991;40;20033;-65
2021/07/27 06:45:42;;;;;;;4.20;3.50;;;23.80;71.40;;;;;;3561253;40;20060;-65
2021/07/27 06:48:10;;;;;;;5.53;3.20;;;23.90;70.90;;;;;;3561107;40;20049;-64
2021/07/27 06:50:36;;;;;;;6.70;3.55;;;23.90;71.00;;;;;;3561252;40;20033;-65
2021/07/27 06:53:02;;;;;;;4.38;3.42;;;23.90;69.80;;;;;;3561328;40;20077;-65
2021/07/27 06:55:28;;;;;;;4.97;3.50;;;23.90;70.30;;;;;;3560807;40;20805;-65
2021/07/27 06:57:54;;;;;;;4.82;3.38;;;23.90;70.00;;;;;;3561053;40;20103;-65
2021/07/27 07:00:20;;;;;;;7.28;3.42;;;24.00;70.00;;;;;;3560473;40;20030;-65
2021/07/27 07:02:46;;;;;;;4.18;3.33;;;24.00;69.00;;;;;;3561307;40;20411;-65
2021/07/27 07:05:12;;;;;;;4.25;3.05;;;24.10;67.90;;;;;;3560426;40;20126;-65
2021/07/27 07:07:39;;;;;;;5.15;3.60;;;24.10;67.90;;;;;;3560124;40;20044;-64
2021/07/27 07:10:05;;;;;;;5.72;3.60;;;24.20;67.60;;;;;;3560010;40;20082;-65
2021/07/27 07:12:32;;;;;;;5.70;3.60;;;24.30;67.30;;;;;;3559156;40;20111;-65
2021/07/27 07:14:58;;;;;;;5.15;3.30;;;24.40;68.00;;;;;;3559157;40;20058;-64
2021/07/27 07:17:24;;;;;;;4.47;3.38;;;24.40;67.30;;;;;;3560148;40;20049;-65
2021/07/27 07:19:51;;;;;;;3.53;3.20;;;24.60;65.90;;;;;;3560399;40;20045;-67
2021/07/27 07:22:18;;;;;;;5.18;2.80;;;24.70;66.10;;;;;;3560694;40;20123;-65
2021/07/27 07:24:47;;;;;;;4.65;3.25;;;24.70;66.30;;;;;;3559385;40;20100;-65
2021/07/27 07:27:14;;;;;;;4.55;3.05;;;24.80;65.70;;;;;;3560639;40;20030;-66
2021/07/27 07:29:40;;;;;;;4.13;2.72;;;24.90;65.50;;;;;;3560134;40;20067;-65
2021/07/27 07:32:06;;;;;;;3.70;3.15;;;25.00;65.40;;;;;;3560340;40;20041;-65
2021/07/27 07:34:33;;;;;;;7.15;3.30;;;25.00;66.20;;;;;;3559972;40;20476;-65
2021/07/27 07:37:00;;;;;;;5.18;3.33;;;25.10;65.80;;;;;;3560308;40;20107;-65
2021/07/27 07:39:31;;;;;;;5.47;4.18;;;25.20;64.90;;;;;;3559589;40;20513;-65
2021/07/27 07:42:01;;;;;;;7.38;3.58;;;25.20;64.40;;;;;;3558769;40;20120;-66
2021/07/27 07:44:28;;;;;;;5.35;3.30;;;25.30;63.90;;;;;;3559017;40;20442;-67
2021/07/27 07:46:54;;;;;;;5.20;2.92;;;25.30;64.40;;;;;;3560363;40;20021;-65
2021/07/27 07:49:20;;;;;;;5.30;3.50;;;25.30;63.60;;;;;;3560672;40;20036;-66
2021/07/27 07:51:47;;;;;;;5.18;3.38;;;25.40;62.90;;;;;;3558219;40;20033;-66
2021/07/27 07:54:17;;;;;;;5.30;3.85;;;25.40;62.20;;;;;;3560510;40;20230;-66
2021/07/27 07:56:43;;;;;;;7.80;3.60;;;25.50;62.80;;;;;;3560557;40;20034;-66
2021/07/27 07:59:10;;;;;;;4.63;3.80;;;25.50;62.80;;;;;;3560015;40;20630;-67
2021/07/27 08:01:36;;;;;;;20.20;5.28;;;25.50;62.00;;;;;;3559909;40;20041;-65
2021/07/27 08:04:01;;;;;;;6.03;4.00;;;25.60;61.70;;;;;;3558677;40;20040;-67
2021/07/27 08:06:29;;;;;;;9.13;3.38;;;25.50;61.80;;;;;;3558872;40;20039;-67
2021/07/27 08:08:55;;;;;;;6.05;4.50;;;25.60;60.90;;;;;;3558902;40;20040;-67
2021/07/27 08:11:20;;;;;;;5.32;4.18;;;25.60;60.60;;;;;;3559881;40;20029;-67
2021/07/27 08:13:46;;;;;;;6.85;5.30;;;25.60;60.60;;;;;;3558341;40;20066;-67
2021/07/27 08:16:12;;;;;;;7.25;5.00;;;25.60;62.20;;;;;;3559994;40;20061;-67
2021/07/27 08:18:38;;;;;;;6.35;2.95;;;25.60;61.50;;;;;;3560516;40;20482;-66
2021/07/27 08:21:04;;;;;;;5.57;3.85;;;25.70;61.20;;;;;;3559339;40;20041;-67
2021/07/27 08:23:31;;;;;;;4.82;3.80;;;25.70;61.40;;;;;;3560138;40;20026;-67
2021/07/27 08:25:57;;;;;;;5.03;3.78;;;25.80;61.10;;;;;;3559078;40;20490;-68
2021/07/27 08:28:23;;;;;;;3.90;3.58;;;25.80;61.70;;;;;;3559799;40;20037;-67
2021/07/27 08:30:48;;;;;;;4.95;3.92;;;25.90;61.50;;;;;;3560425;40;20045;-68
2021/07/27 08:33:14;;;;;;;7.03;3.80;;;25.90;61.40;;;;;;3560260;40;20033;-67
2021/07/27 08:35:40;;;;;;;5.25;3.00;;;26.10;60.40;;;;;;3560458;40;20104;-66
2021/07/27 08:38:05;;;;;;;9.75;3.97;;;26.10;59.50;;;;;;3561267;40;20045;-66
2021/07/27 08:40:35;;;;;;;5.78;3.35;;;26.20;60.40;;;;;;3561753;40;20111;-66
2021/07/27 08:43:02;;;;;;;4.15;3.53;;;26.20;58.30;;;;;;3561582;40;20042;-66
2021/07/27 08:45:29;;;;;;;3.67;2.63;;;26.20;58.30;;;;;;3561158;40;20045;-66
2021/07/27 08:47:55;;;;;;;3.13;2.63;;;26.30;58.50;;;;;;3561324;40;20307;-66
2021/07/27 08:50:21;;;;;;;2.97;2.55;;;26.40;58.40;;;;;;3560987;40;20088;-66
2021/07/27 08:52:47;;;;;;;2.75;2.45;;;26.50;57.30;;;;;;3561131;40;20085;-66
2021/07/27 08:55:13;;;;;;;2.90;2.60;;;26.60;56.90;;;;;;3561255;40;20626;-66
2021/07/27 08:57:52;;;;;;;2.95;2.65;;;26.70;56.40;;;;;;3560321;40;20494;-66
2021/07/27 09:00:18;;;;;;;4.22;2.42;;;26.90;56.90;;;;;;3560383;40;20073;-66
2021/07/27 09:02:44;;;;;;;4.15;3.00;;;27.00;56.90;;;;;;3560924;40;20033;-66
2021/07/27 09:05:11;;;;;;;4.85;2.53;;;27.10;55.40;;;;;;3560970;40;20096;-66
2021/07/27 09:07:37;;;;;;;4.28;2.85;;;27.20;55.90;;;;;;3561053;40;20037;-66
2021/07/27 09:10:21;;;;;;;3.65;2.88;;;27.10;55.40;;;;;;3560967;40;20018;-66
2021/07/27 09:13:15;;;;;;;4.60;2.60;;;27.20;56.00;;;;;;3561285;40;20037;-66
2021/07/27 09:15:45;;;;;;;6.13;3.85;;;27.40;55.10;;;;;;3557230;40;20104;-67
2021/07/27 09:18:17;;;;;;;4.57;2.92;;;27.40;55.30;;;;;;3560679;40;20725;-65
2021/07/27 09:20:50;;;;;;;4.38;2.75;;;27.40;55.00;;;;;;3559845;40;20115;-67
2021/07/27 09:23:18;;;;;;;11.82;3.65;;;27.60;54.90;;;;;;3560500;40;20029;-66
2021/07/27 09:25:46;;;;;;;5.68;3.70;;;27.70;53.50;;;;;;3559783;40;20135;-66
2021/07/27 09:28:13;;;;;;;3.35;3.03;;;27.70;52.00;;;;;;3561424;40;20029;-66
2021/07/27 09:30:41;;;;;;;3.40;3.00;;;27.80;51.70;;;;;;3561251;40;20128;-66
2021/07/27 09:33:08;;;;;;;4.60;2.63;;;27.80;52.00;;;;;;3561204;40;20407;-67
2021/07/27 09:35:35;;;;;;;3.65;2.50;;;27.80;51.50;;;;;;3561762;40;20045;-67
2021/07/27 09:38:02;;;;;;;4.18;2.85;;;27.90;52.10;;;;;;3561606;40;20041;-66
2021/07/27 09:40:28;;;;;;;4.97;3.10;;;28.00;52.20;;;;;;3561331;40;20029;-66
2021/07/27 09:42:55;;;;;;;3.78;2.47;;;27.90;51.30;;;;;;3561167;40;20157;-66
2021/07/27 09:45:21;;;;;;;2.80;2.22;;;27.70;51.00;;;;;;3561445;40;20021;-66
2021/07/27 09:47:50;;;;;;;3.47;2.80;;;27.50;52.90;;;;;;3561124;40;20080;-67
2021/07/27 09:50:15;;;;;;;3.90;3.20;;;27.50;53.60;;;;;;3560932;40;20028;-67
2021/07/27 09:52:43;;;;;;;2.45;2.25;;;27.70;53.30;;;;;;3559736;40;20166;-66
2021/07/27 09:55:11;;;;;;;2.88;2.55;;;27.80;52.30;;;;;;3560477;40;20033;-68
2021/07/27 09:57:37;;;;;;;5.30;2.50;;;27.90;51.10;;;;;;3560371;40;20388;-67
2021/07/27 10:00:03;;;;;;;3.40;2.75;;;27.80;52.00;;;;;;3560484;40;20406;-66
2021/07/27 10:02:33;;;;;;;3.95;3.50;;;27.80;52.50;;;;;;3559605;40;20045;-67
2021/07/27 10:04:59;;;;;;;3.03;2.65;;;27.90;53.30;;;;;;3559812;40;20037;-67
2021/07/27 10:07:29;;;;;;;4.55;3.95;;;28.00;52.40;;;;;;3559717;40;20028;-67
2021/07/27 10:10:08;;;;;;;2.83;2.50;;;28.00;52.20;;;;;;3560507;40;20026;-67
2021/07/27 10:12:35;;;;;;;3.88;2.63;;;27.90;51.60;;;;;;3555764;40;20034;-67
2021/07/27 10:15:12;;;;;;;4.25;3.17;;;27.90;52.20;;;;;;3561164;40;20049;-68
2021/07/27 10:17:54;;;;;;;10.63;3.10;;;27.70;52.40;;;;;;3559084;40;20059;-67
2021/07/27 10:20:28;;;;;;;4.78;3.50;;;27.70;52.20;;;;;;3560087;40;20049;-67
2021/07/27 10:22:54;;;;;;;5.40;4.47;;;27.60;52.10;;;;;;3564562;40;20718;-67
2021/07/27 10:25:25;;;;;;;3.03;2.72;;;27.60;52.40;;;;;;3561030;40;20040;-67
2021/07/27 10:27:54;;;;;;;3.92;2.72;;;27.60;51.40;;;;;;3561251;40;20034;-67
2021/07/27 10:30:31;;;;;;;3.42;2.60;;;27.50;52.40;;;;;;3561013;40;20030;-67
2021/07/27 10:32:57;;;;;;;3.90;3.28;;;27.50;52.60;;;;;;3560095;40;20385;-66
2021/07/27 10:35:33;;;;;;;4.18;3.20;;;27.60;52.40;;;;;;3561391;40;20033;-67
2021/07/27 10:38:13;;;;;;;3.60;2.50;;;27.70;52.10;;;;;;3561373;40;20052;-66
2021/07/27 10:40:43;;;;;;;3.20;2.75;;;27.60;51.70;;;;;;3560366;40;20037;-67
2021/07/27 10:43:09;;;;;;;4.53;2.38;;;27.60;52.70;;;;;;3561251;40;20045;-66
2021/07/27 10:45:36;;;;;;;3.05;2.45;;;27.50;53.00;;;;;;3561606;40;20029;-66
2021/07/27 10:48:02;;;;;;;3.28;2.50;;;27.60;53.40;;;;;;3560313;40;20033;-67
2021/07/27 10:50:30;;;;;;;3.20;2.58;;;27.70;52.70;;;;;;3561385;40;20033;-67
2021/07/27 10:53:12;;;;;;;3.38;2.20;;;27.80;53.10;;;;;;3561476;40;20037;-66
2021/07/27 10:55:41;;;;;;;2.83;2.22;;;28.00;52.70;;;;;;3561521;40;20078;-67
2021/07/27 10:58:17;;;;;;;3.40;2.50;;;28.00;51.60;;;;;;3561233;40;20593;-66
2021/07/27 11:00:42;;;;;;;;;;;28.00;52.00;;;;;;3559005;40;20034;-67
2021/07/27 11:03:08;;;;;;;;;;;28.10;51.80;;;;;;3561986;40;20014;-68
2021/07/27 11:05:37;;;;;;;4.13;2.77;;;28.20;51.70;;;;;;3561091;40;20191;-67
2021/07/27 11:08:03;;;;;;;3.80;2.60;;;28.50;51.20;;;;;;3560989;40;20652;-67
2021/07/27 11:10:33;;;;;;;2.50;2.30;;;28.60;50.60;;;;;;3560684;40;20029;-66
2021/07/27 11:12:58;;;;;;;2.63;2.30;;;28.50;50.80;;;;;;3560636;40;20109;-66
2021/07/27 11:15:29;;;;;;;3.72;2.28;;;28.20;51.20;;;;;;3560736;40;20407;-66
2021/07/27 11:18:02;;;;;;;2.63;2.20;;;28.10;51.50;;;;;;3559637;40;20045;-66
2021/07/27 11:20:37;;;;;;;2.55;2.30;;;28.00;51.20;;;;;;3559615;40;20505;-66
2021/07/27 11:23:16;;;;;;;2.90;2.30;;;28.00;51.90;;;;;;3559878;40;20041;-66
2021/07/27 11:25:43;;;;;;;3.15;2.50;;;28.10;50.90;;;;;;3560703;40;20692;-67
2021/07/27 11:28:14;;;;;;;3.13;2.13;;;28.20;51.20;;;;;;3559838;40;20033;-67
2021/07/27 11:30:40;;;;;;;2.83;2.15;;;28.30;49.50;;;;;;3559582;40;20044;-68
2021/07/27 11:33:19;;;;;;;2.97;2.10;;;28.30;50.70;;;;;;3559394;40;20033;-68
2021/07/27 11:35:46;;;;;;;5.03;2.20;;;28.40;49.30;;;;;;3560976;40;20041;-70
2021/07/27 11:38:30;;;;;;;7.15;2.25;;;28.40;48.90;;;;;;3560617;40;20139;-67
2021/07/27 11:41:06;;;;;;;7.53;3.33;;;28.40;47.80;;;;;;3560068;40;20144;-65
2021/07/27 11:43:40;;;;;;;4.45;2.03;;;28.30;49.80;;;;;;3560169;40;20051;-66
2021/07/27 11:46:12;;;;;;;4.78;2.55;;;28.20;48.70;;;;;;3560216;40;20040;-66
2021/07/27 11:48:39;;;;;;;2.60;2.08;;;28.00;49.50;;;;;;3559314;40;20045;-66
2021/07/27 11:51:05;;;;;;;5.40;2.05;;;28.00;49.20;;;;;;3560091;40;20037;-66
2021/07/27 11:53:34;;;;;;;5.65;2.08;;;28.10;48.80;;;;;;3560846;40;20040;-67
2021/07/27 11:56:29;;;;;;;5.40;2.88;;;28.20;49.20;;;;;;3560489;40;20116;-66
2021/07/27 11:59:01;;;;;;;2.60;2.15;;;28.50;50.40;;;;;;3552519;40;20061;-66
2021/07/27 12:01:40;;;;;;;2.80;2.00;;;28.60;48.70;;;;;;3560062;40;20077;-67
2021/07/27 12:04:06;;;;;;;3.00;2.65;;;28.60;49.30;;;;;;3554620;40;20096;-67
2021/07/27 12:06:32;;;;;;;6.18;3.53;;;28.60;49.00;;;;;;3560026;40;20070;-67
2021/07/27 12:09:01;;;;;;;5.18;2.28;;;28.50;49.40;;;;;;3560046;40;20026;-66
2021/07/27 12:11:27;;;;;;;5.97;2.53;;;28.30;48.50;;;;;;3561360;40;20033;-67
2021/07/27 12:13:53;;;;;;;5.35;2.05;;;28.10;49.30;;;;;;3563761;40;20032;-67
2021/07/27 12:16:19;;;;;;;3.20;2.75;;;27.90;50.60;;;;;;3563782;40;20054;-66
2021/07/27 12:18:45;;;;;;;5.20;2.63;;;27.80;49.40;;;;;;3563414;40;20119;-67
2021/07/27 12:21:10;;;;;;;2.83;2.17;;;27.70;50.20;;;;;;3563114;40;20061;-67
2021/07/27 12:23:36;;;;;;;2.50;2.30;;;27.60;50.20;;;;;;3562467;40;20401;-67
2021/07/27 12:26:06;;;;;;;4.13;3.67;;;27.60;50.30;;;;;;3562127;40;20045;-67
2021/07/27 12:28:32;;;;;;;2.85;2.05;;;27.60;50.30;;;;;;3563690;40;20411;-67
2021/07/27 12:30:58;;;;;;;3.85;1.85;;;27.70;49.60;;;;;;3563525;40;20065;-67
2021/07/27 12:33:24;;;;;;;5.05;2.40;;;27.90;49.20;;;;;;3563228;40;20049;-67
2021/07/27 12:35:50;;;;;;;2.92;2.10;;;28.10;49.40;;;;;;3562750;40;20048;-67
2021/07/27 12:38:17;;;;;;;3.78;1.92;;;28.20;49.00;;;;;;3562677;40;20094;-67
2021/07/27 12:40:42;;;;;;;3.85;2.97;;;28.30;48.20;;;;;;3562943;40;20025;-67
2021/07/27 12:43:08;;;;;;;2.42;1.90;;;28.30;48.60;;;;;;3563430;40;20022;-67
2021/07/27 12:45:34;;;;;;;1.92;1.83;;;28.40;48.00;;;;;;3562842;40;20033;-68
2021/07/27 12:48:00;;;;;;;3.33;2.53;;;28.30;48.10;;;;;;3562039;40;20032;-67
2021/07/27 12:50:26;;;;;;;5.10;2.20;;;28.20;49.00;;;;;;3562375;40;20100;-68
2021/07/27 12:52:51;;;;;;;4.00;2.22;;;28.10;49.00;;;;;;3563409;40;20434;-68
2021/07/27 12:55:17;;;;;;;1.98;1.63;;;27.90;48.90;;;;;;3562648;40;20038;-67
2021/07/27 12:57:43;;;;;;;2.50;2.00;;;27.90;49.60;;;;;;3563094;40;20628;-67
2021/07/27 13:00:09;;;;;;;6.13;1.88;;;27.80;50.50;;;;;;3563324;40;20647;-67
2021/07/27 13:02:35;;;;;;;2.40;2.20;;;28.00;50.30;;;;;;3561519;40;20027;-67
2021/07/27 13:05:01;;;;;;;2.22;1.95;;;28.10;50.30;;;;;;3563202;40;20053;-67
2021/07/27 13:07:26;;;;;;;5.00;2.60;;;28.10;49.40;;;;;;3563145;40;20612;-67
2021/07/27 13:09:52;;;;;;;5.32;2.72;;;28.10;49.30;;;;;;3562616;40;20026;-68